Terminal Aerodrome Forecast
Issued by NWS Shreveport, LA

Home | Current Version | Previous Version | Text Only | Print | Product List | Glossary On
Versions: 1 2 3 4 5 6 7 8 9 10 11 12
000
FTUS44 KSHV 281720
TAFELD
TAF
KELD 281720Z 2818/2918 25009KT P6SM VCSH SCT090 BKN120
     FM282100 25009KT P6SM SCT050 BKN100
     FM290000 25006KT P6SM VCTS BKN050CB OVC080
     FM290600 VRB04KT P6SM VCTS OVC050CB
     FM291400 02007KT P6SM BKN050=

USA.gov is the U.S. government's official web portal to all federal, state and local government web resources and services.